sensor_id;sensor_type;location;lat;lon;timestamp;pressure;altitude;pressure_sealevel;temperature;humidity
37792;BME280;29527;55.766;37.570;2023-05-12T00:00:58;100426.28;;;10.47;64.35
37792;BME280;29527;55.766;37.570;2023-05-12T00:03:24;100422.00;;;10.44;64.43
37792;BME280;29527;55.766;37.570;2023-05-12T00:05:49;100425.88;;;10.40;64.26
37792;BME280;29527;55.766;37.570;2023-05-12T00:08:15;100425.09;;;10.38;64.34
37792;BME280;29527;55.766;37.570;2023-05-12T00:10:41;100423.47;;;10.36;64.86
37792;BME280;29527;55.766;37.570;2023-05-12T00:13:07;100421.78;;;10.34;64.71
37792;BME280;29527;55.766;37.570;2023-05-12T00:15:33;100420.91;;;10.34;64.71
37792;BME280;29527;55.766;37.570;2023-05-12T00:17:59;100421.78;;;10.34;64.82
37792;BME280;29527;55.766;37.570;2023-05-12T00:20:24;100391.81;;;10.16;64.82
37792;BME280;29527;55.766;37.570;2023-05-12T00:22:50;100395.31;;;10.17;64.41
37792;BME280;29527;55.766;37.570;2023-05-12T00:25:15;100418.22;;;10.34;64.47
37792;BME280;29527;55.766;37.570;2023-05-12T00:27:41;100425.41;;;10.33;64.41
37792;BME280;29527;55.766;37.570;2023-05-12T00:30:07;100418.56;;;10.29;64.30
37792;BME280;29527;55.766;37.570;2023-05-12T00:32:34;100414.41;;;10.25;64.49
37792;BME280;29527;55.766;37.570;2023-05-12T00:35:00;100405.06;;;10.18;64.26
37792;BME280;29527;55.766;37.570;2023-05-12T00:37:25;100406.16;;;10.15;64.47
37792;BME280;29527;55.766;37.570;2023-05-12T00:39:51;100409.97;;;10.11;64.66
37792;BME280;29527;55.766;37.570;2023-05-12T00:42:16;100407.75;;;10.05;64.54
37792;BME280;29527;55.766;37.570;2023-05-12T00:44:41;100417.91;;;10.00;64.64
37792;BME280;29527;55.766;37.570;2023-05-12T00:47:07;100403.34;;;9.91;64.68
37792;BME280;29527;55.766;37.570;2023-05-12T00:49:33;100400.78;;;9.89;64.91
37792;BME280;29527;55.766;37.570;2023-05-12T00:52:01;100405.34;;;9.87;64.51
37792;BME280;29527;55.766;37.570;2023-05-12T00:54:27;100411.13;;;9.81;64.81
37792;BME280;29527;55.766;37.570;2023-05-12T00:56:52;100406.00;;;9.78;64.62
37792;BME280;29527;55.766;37.570;2023-05-12T00:59:18;100399.16;;;9.74;65.00
37792;BME280;29527;55.766;37.570;2023-05-12T01:01:44;100402.03;;;9.71;65.14
37792;BME280;29527;55.766;37.570;2023-05-12T01:04:10;100412.94;;;9.68;65.28
37792;BME280;29527;55.766;37.570;2023-05-12T01:07:02;100406.97;;;9.77;65.10
37792;BME280;29527;55.766;37.570;2023-05-12T01:09:29;100399.78;;;9.65;65.18
37792;BME280;29527;55.766;37.570;2023-05-12T01:11:55;100401.13;;;9.57;65.49
37792;BME280;29527;55.766;37.570;2023-05-12T01:14:20;100399.34;;;9.58;65.41
37792;BME280;29527;55.766;37.570;2023-05-12T01:16:51;100410.78;;;9.60;65.47
37792;BME280;29527;55.766;37.570;2023-05-12T01:19:47;100404.19;;;9.66;65.33
37792;BME280;29527;55.766;37.570;2023-05-12T01:22:14;100403.81;;;9.57;65.11
37792;BME280;29527;55.766;37.570;2023-05-12T01:25:03;100400.72;;;9.63;65.05
37792;BME280;29527;55.766;37.570;2023-05-12T01:27:31;100365.06;;;9.37;64.87
37792;BME280;29527;55.766;37.570;2023-05-12T01:30:02;100403.06;;;9.55;65.15
37792;BME280;29527;55.766;37.570;2023-05-12T01:32:31;100403.28;;;9.52;64.54
37792;BME280;29527;55.766;37.570;2023-05-12T01:34:56;100394.28;;;9.53;64.93
37792;BME280;29527;55.766;37.570;2023-05-12T01:37:22;100396.00;;;9.54;64.59
37792;BME280;29527;55.766;37.570;2023-05-12T01:39:53;100400.59;;;9.52;64.47
37792;BME280;29527;55.766;37.570;2023-05-12T01:42:19;100397.06;;;9.52;65.15
37792;BME280;29527;55.766;37.570;2023-05-12T01:44:45;100394.28;;;9.53;64.56
37792;BME280;29527;55.766;37.570;2023-05-12T01:47:11;100403.81;;;9.57;64.63
37792;BME280;29527;55.766;37.570;2023-05-12T01:49:37;100382.09;;;9.49;64.41
37792;BME280;29527;55.766;37.570;2023-05-12T01:52:03;100397.50;;;9.58;64.24
37792;BME280;29527;55.766;37.570;2023-05-12T01:54:28;100398.16;;;9.62;64.19
37792;BME280;29527;55.766;37.570;2023-05-12T01:56:54;100397.28;;;9.61;63.88
37792;BME280;29527;55.766;37.570;2023-05-12T01:59:19;100379.13;;;9.54;63.57
37792;BME280;29527;55.766;37.570;2023-05-12T02:01:45;100407.38;;;9.71;63.47
37792;BME280;29527;55.766;37.570;2023-05-12T02:04:10;100407.16;;;9.74;63.36
37792;BME280;29527;55.766;37.570;2023-05-12T02:06:36;100411.25;;;9.80;63.29
37792;BME280;29527;55.766;37.570;2023-05-12T02:09:01;100392.63;;;9.78;63.12
37792;BME280;29527;55.766;37.570;2023-05-12T02:11:27;100406.31;;;9.86;62.83
37792;BME280;29527;55.766;37.570;2023-05-12T02:13:53;100405.06;;;9.92;63.12
37792;BME280;29527;55.766;37.570;2023-05-12T02:16:18;100405.59;;;9.97;62.76
37792;BME280;29527;55.766;37.570;2023-05-12T02:18:44;100408.69;;;10.04;62.94
37792;BME280;29527;55.766;37.570;2023-05-12T02:21:29;100395.63;;;10.12;62.66
37792;BME280;29527;55.766;37.570;2023-05-12T02:23:55;100408.41;;;10.22;62.54
37792;BME280;29527;55.766;37.570;2023-05-12T02:26:21;100408.81;;;10.28;62.29
37792;BME280;29527;55.766;37.570;2023-05-12T02:28:46;100402.28;;;10.32;61.67
37792;BME280;29527;55.766;37.570;2023-05-12T02:31:12;100412.50;;;10.40;61.01
37792;BME280;29527;55.766;37.570;2023-05-12T02:33:37;100414.72;;;10.46;60.73
37792;BME280;29527;55.766;37.570;2023-05-12T02:36:03;100389.88;;;10.44;61.30
37792;BME280;29527;55.766;37.570;2023-05-12T02:38:29;100403.91;;;10.61;60.64
37792;BME280;29527;55.766;37.570;2023-05-12T02:40:55;100399.28;;;10.63;60.73
37792;BME280;29527;55.766;37.570;2023-05-12T02:43:20;100415.94;;;10.80;59.51
37792;BME280;29527;55.766;37.570;2023-05-12T02:45:46;100411.88;;;10.87;59.18
37792;BME280;29527;55.766;37.570;2023-05-12T02:48:11;100415.06;;;10.92;59.44
37792;BME280;29527;55.766;37.570;2023-05-12T02:50:37;100415.88;;;11.05;59.31
37792;BME280;29527;55.766;37.570;2023-05-12T02:53:02;100390.19;;;11.03;58.27
37792;BME280;29527;55.766;37.570;2023-05-12T02:55:28;100411.28;;;11.32;58.22
37792;BME280;29527;55.766;37.570;2023-05-12T02:57:54;100427.72;;;11.63;58.47
37792;BME280;29527;55.766;37.570;2023-05-12T03:00:20;100418.69;;;11.88;56.58
37792;BME280;29527;55.766;37.570;2023-05-12T03:02:46;100403.25;;;12.15;56.08
37792;BME280;29527;55.766;37.570;2023-05-12T03:05:11;100423.19;;;12.46;54.93
37792;BME280;29527;55.766;37.570;2023-05-12T03:07:37;100383.53;;;12.50;53.46
37792;BME280;29527;55.766;37.570;2023-05-12T03:10:04;100418.66;;;12.92;52.96
37792;BME280;29527;55.766;37.570;2023-05-12T03:12:29;100389.44;;;12.99;52.35
37792;BME280;29527;55.766;37.570;2023-05-12T03:14:55;100415.09;;;13.36;51.85
37792;BME280;29527;55.766;37.570;2023-05-12T03:17:21;100393.00;;;13.44;51.44
37792;BME280;29527;55.766;37.570;2023-05-12T03:19:47;100413.06;;;13.72;51.14
37792;BME280;29527;55.766;37.570;2023-05-12T03:22:12;100408.91;;;13.89;50.51
37792;BME280;29527;55.766;37.570;2023-05-12T03:24:38;100418.22;;;14.06;49.88
37792;BME280;29527;55.766;37.570;2023-05-12T03:27:04;100414.94;;;14.24;49.15
37792;BME280;29527;55.766;37.570;2023-05-12T03:29:29;100398.72;;;14.45;48.46
37792;BME280;29527;55.766;37.570;2023-05-12T03:31:55;100401.66;;;14.63;47.28
37792;BME280;29527;55.766;37.570;2023-05-12T03:34:21;100383.28;;;14.78;46.60
37792;BME280;29527;55.766;37.570;2023-05-12T03:36:46;100413.19;;;15.16;46.00
37792;BME280;29527;55.766;37.570;2023-05-12T03:39:12;100386.63;;;15.21;45.54
37792;BME280;29527;55.766;37.570;2023-05-12T03:41:37;100410.78;;;15.53;44.99
37792;BME280;29527;55.766;37.570;2023-05-12T03:44:03;100408.38;;;15.79;44.39
37792;BME280;29527;55.766;37.570;2023-05-12T03:46:33;100382.50;;;15.86;43.46
37792;BME280;29527;55.766;37.570;2023-05-12T03:48:59;100381.19;;;16.10;42.52
37792;BME280;29527;55.766;37.570;2023-05-12T03:51:24;100407.53;;;16.46;41.69
37792;BME280;29527;55.766;37.570;2023-05-12T03:53:50;100405.75;;;16.64;41.35
37792;BME280;29527;55.766;37.570;2023-05-12T03:56:16;100408.06;;;16.87;41.17
37792;BME280;29527;55.766;37.570;2023-05-12T03:58:42;100405.81;;;17.11;40.99
37792;BME280;29527;55.766;37.570;2023-05-12T04:01:08;100405.16;;;17.27;40.24
37792;BME280;29527;55.766;37.570;2023-05-12T04:03:33;100404.53;;;17.51;39.97
37792;BME280;29527;55.766;37.570;2023-05-12T04:06:02;100412.53;;;17.97;38.93
37792;BME280;29527;55.766;37.570;2023-05-12T04:08:29;100409.00;;;18.23;38.11
37792;BME280;29527;55.766;37.570;2023-05-12T04:10:55;100411.88;;;18.48;37.70
37792;BME280;29527;55.766;37.570;2023-05-12T04:13:24;100405.34;;;18.67;37.02
37792;BME280;29527;55.766;37.570;2023-05-12T04:15:50;100399.59;;;18.78;36.74
37792;BME280;29527;55.766;37.570;2023-05-12T04:18:16;100405.69;;;19.07;36.04
37792;BME280;29527;55.766;37.570;2023-05-12T04:20:42;100406.41;;;19.34;35.72
37792;BME280;29527;55.766;37.570;2023-05-12T04:23:08;100395.56;;;19.59;35.28
37792;BME280;29527;55.766;37.570;2023-05-12T04:25:38;100393.03;;;19.74;35.14
37792;BME280;29527;55.766;37.570;2023-05-12T04:28:05;100379.28;;;19.75;35.19
37792;BME280;29527;55.766;37.570;2023-05-12T04:30:31;100390.97;;;20.26;33.92
37792;BME280;29527;55.766;37.570;2023-05-12T04:32:56;100392.91;;;20.48;33.08
37792;BME280;29527;55.766;37.570;2023-05-12T04:35:22;100392.19;;;20.63;33.23
37792;BME280;29527;55.766;37.570;2023-05-12T04:37:48;100386.38;;;20.83;33.07
37792;BME280;29527;55.766;37.570;2023-05-12T04:40:13;100380.50;;;21.26;31.99
37792;BME280;29527;55.766;37.570;2023-05-12T04:42:39;100385.06;;;21.33;31.68
37792;BME280;29527;55.766;37.570;2023-05-12T04:45:05;100363.56;;;21.15;31.75
37792;BME280;29527;55.766;37.570;2023-05-12T04:47:32;100393.88;;;21.35;31.57
37792;BME280;29527;55.766;37.570;2023-05-12T04:49:57;100399.88;;;22.01;30.41
37792;BME280;29527;55.766;37.570;2023-05-12T04:52:23;100398.84;;;22.77;29.50
37792;BME280;29527;55.766;37.570;2023-05-12T04:54:49;100393.06;;;24.04;27.62
37792;BME280;29527;55.766;37.570;2023-05-12T04:57:14;100383.78;;;26.39;24.71
37792;BME280;29527;55.766;37.570;2023-05-12T04:59:40;100392.50;;;28.60;21.65
37792;BME280;29527;55.766;37.570;2023-05-12T05:02:10;100397.28;;;30.47;19.63
37792;BME280;29527;55.766;37.570;2023-05-12T05:04:36;100387.91;;;31.59;18.46
37792;BME280;29527;55.766;37.570;2023-05-12T05:07:02;100397.38;;;32.54;17.59
37792;BME280;29527;55.766;37.570;2023-05-12T05:09:28;100391.44;;;33.39;16.37
37792;BME280;29527;55.766;37.570;2023-05-12T05:11:53;100384.03;;;34.15;15.42
37792;BME280;29527;55.766;37.570;2023-05-12T05:14:18;100388.03;;;34.93;14.20
37792;BME280;29527;55.766;37.570;2023-05-12T05:16:44;100389.53;;;35.69;14.03
37792;BME280;29527;55.766;37.570;2023-05-12T05:19:10;100393.59;;;36.49;13.02
37792;BME280;29527;55.766;37.570;2023-05-12T05:21:37;100379.63;;;37.20;12.72
37792;BME280;29527;55.766;37.570;2023-05-12T05:24:03;100386.91;;;37.16;12.45
37792;BME280;29527;55.766;37.570;2023-05-12T05:26:29;100387.59;;;36.87;12.64
37792;BME280;29527;55.766;37.570;2023-05-12T05:28:55;100390.06;;;37.44;12.21
37792;BME280;29527;55.766;37.570;2023-05-12T05:31:21;100376.22;;;38.22;11.41
37792;BME280;29527;55.766;37.570;2023-05-12T05:33:47;100383.22;;;38.49;10.91
37792;BME280;29527;55.766;37.570;2023-05-12T05:36:12;100380.00;;;38.07;11.02
37792;BME280;29527;55.766;37.570;2023-05-12T05:38:38;100379.31;;;37.61;11.38
37792;BME280;29527;55.766;37.570;2023-05-12T05:41:04;100382.00;;;37.37;11.76
37792;BME280;29527;55.766;37.570;2023-05-12T05:43:30;100373.41;;;37.98;11.51
37792;BME280;29527;55.766;37.570;2023-05-12T05:45:55;100378.59;;;39.21;10.35
37792;BME280;29527;55.766;37.570;2023-05-12T05:48:24;100378.50;;;40.54;9.30
37792;BME280;29527;55.766;37.570;2023-05-12T05:50:51;100379.06;;;41.52;8.69
37792;BME280;29527;55.766;37.570;2023-05-12T05:53:17;100374.22;;;41.98;8.66
37792;BME280;29527;55.766;37.570;2023-05-12T05:55:43;100384.41;;;42.17;8.38
37792;BME280;29527;55.766;37.570;2023-05-12T05:58:09;100375.28;;;42.11;8.48
37792;BME280;29527;55.766;37.570;2023-05-12T06:00:34;100376.31;;;42.73;8.21
37792;BME280;29527;55.766;37.570;2023-05-12T06:03:00;100377.16;;;43.53;7.74
37792;BME280;29527;55.766;37.570;2023-05-12T06:05:26;100369.22;;;44.42;7.19
37792;BME280;29527;55.766;37.570;2023-05-12T06:07:51;100366.47;;;45.06;6.77
37792;BME280;29527;55.766;37.570;2023-05-12T06:10:17;100377.41;;;45.83;6.63
37792;BME280;29527;55.766;37.570;2023-05-12T06:12:43;100364.44;;;46.44;6.43
37792;BME280;29527;55.766;37.570;2023-05-12T06:15:09;100361.81;;;46.89;5.64
37792;BME280;29527;55.766;37.570;2023-05-12T06:17:35;100367.63;;;47.66;4.98
37792;BME280;29527;55.766;37.570;2023-05-12T06:20:01;100363.41;;;48.24;5.07
37792;BME280;29527;55.766;37.570;2023-05-12T06:22:30;100354.25;;;48.66;4.66
37792;BME280;29527;55.766;37.570;2023-05-12T06:24:55;100344.19;;;49.08;4.00
37792;BME280;29527;55.766;37.570;2023-05-12T06:27:21;100363.94;;;49.64;4.27
37792;BME280;29527;55.766;37.570;2023-05-12T06:29:47;100359.34;;;50.02;4.22
37792;BME280;29527;55.766;37.570;2023-05-12T06:32:12;100368.44;;;50.38;3.95
37792;BME280;29527;55.766;37.570;2023-05-12T06:34:38;100356.56;;;50.60;3.90
37792;BME280;29527;55.766;37.570;2023-05-12T06:37:04;100367.56;;;50.34;3.63
37792;BME280;29527;55.766;37.570;2023-05-12T06:39:29;100350.88;;;50.33;3.73
37792;BME280;29527;55.766;37.570;2023-05-12T06:41:55;100360.28;;;50.64;3.30
37792;BME280;29527;55.766;37.570;2023-05-12T06:44:21;100349.25;;;50.59;3.48
37792;BME280;29527;55.766;37.570;2023-05-12T06:46:46;100331.88;;;51.02;2.95
37792;BME280;29527;55.766;37.570;2023-05-12T06:49:12;100332.34;;;51.45;2.74
37792;BME280;29527;55.766;37.570;2023-05-12T06:51:37;100342.41;;;51.73;2.87
37792;BME280;29527;55.766;37.570;2023-05-12T06:54:03;100342.88;;;51.37;2.33
37792;BME280;29527;55.766;37.570;2023-05-12T06:56:28;100345.53;;;50.58;3.12
37792;BME280;29527;55.766;37.570;2023-05-12T06:58:54;100337.06;;;50.08;3.18
37792;BME280;29527;55.766;37.570;2023-05-12T07:01:26;100342.59;;;49.97;3.04
37792;BME280;29527;55.766;37.570;2023-05-12T07:03:52;100330.25;;;50.70;2.38
37792;BME280;29527;55.766;37.570;2023-05-12T07:06:17;100321.47;;;50.86;2.03
37792;BME280;29527;55.766;37.570;2023-05-12T07:08:43;100344.84;;;50.65;2.50
37792;BME280;29527;55.766;37.570;2023-05-12T07:11:09;100335.56;;;50.72;2.40
37792;BME280;29527;55.766;37.570;2023-05-12T07:13:34;100337.25;;;51.10;1.87
37792;BME280;29527;55.766;37.570;2023-05-12T07:16:00;100316.03;;;51.42;1.84
37792;BME280;29527;55.766;37.570;2023-05-12T07:18:25;100336.81;;;51.91;1.62
37792;BME280;29527;55.766;37.570;2023-05-12T07:20:51;100330.63;;;51.37;2.02
37792;BME280;29527;55.766;37.570;2023-05-12T07:23:17;100332.97;;;50.93;1.94
37792;BME280;29527;55.766;37.570;2023-05-12T07:25:43;100319.09;;;51.26;1.54
37792;BME280;29527;55.766;37.570;2023-05-12T07:28:08;100323.22;;;51.70;1.62
37792;BME280;29527;55.766;37.570;2023-05-12T07:30:34;100324.50;;;51.80;1.30
37792;BME280;29527;55.766;37.570;2023-05-12T07:33:00;100320.50;;;51.88;1.11
37792;BME280;29527;55.766;37.570;2023-05-12T07:35:26;100314.47;;;51.52;1.00
37792;BME280;29527;55.766;37.570;2023-05-12T07:37:52;100318.34;;;51.29;1.00
37792;BME280;29527;55.766;37.570;2023-05-12T07:40:17;100323.63;;;51.72;0.93
37792;BME280;29527;55.766;37.570;2023-05-12T07:42:43;100320.97;;;51.97;0.74
37792;BME280;29527;55.766;37.570;2023-05-12T07:45:08;100322.97;;;51.07;1.12
37792;BME280;29527;55.766;37.570;2023-05-12T07:47:34;100324.94;;;50.68;0.95
37792;BME280;29527;55.766;37.570;2023-05-12T07:50:00;100320.63;;;49.97;1.50
37792;BME280;29527;55.766;37.570;2023-05-12T07:52:25;100314.19;;;49.31;1.58
37792;BME280;29527;55.766;37.570;2023-05-12T07:54:51;100308.19;;;48.21;2.04
37792;BME280;29527;55.766;37.570;2023-05-12T07:57:17;100322.00;;;46.57;2.63
37792;BME280;29527;55.766;37.570;2023-05-12T07:59:42;100313.94;;;44.92;3.40
37792;BME280;29527;55.766;37.570;2023-05-12T08:02:08;100313.56;;;44.21;3.86
37792;BME280;29527;55.766;37.570;2023-05-12T08:04:34;100315.56;;;43.91;4.04
37792;BME280;29527;55.766;37.570;2023-05-12T08:06:59;100318.63;;;43.59;3.87
37792;BME280;29527;55.766;37.570;2023-05-12T08:09:25;100307.22;;;42.67;4.14
37792;BME280;29527;55.766;37.570;2023-05-12T08:11:50;100308.31;;;41.82;5.03
37792;BME280;29527;55.766;37.570;2023-05-12T08:14:16;100291.88;;;39.82;5.75
37792;BME280;29527;55.766;37.570;2023-05-12T08:16:41;100305.28;;;37.29;6.47
37792;BME280;29527;55.766;37.570;2023-05-12T08:19:11;100320.97;;;34.95;6.99
37792;BME280;29527;55.766;37.570;2023-05-12T08:21:37;100320.19;;;32.40;8.97
37792;BME280;29527;55.766;37.570;2023-05-12T08:24:02;100317.44;;;30.45;10.18
37792;BME280;29527;55.766;37.570;2023-05-12T08:26:28;100315.97;;;29.23;10.77
37792;BME280;29527;55.766;37.570;2023-05-12T08:28:53;100316.97;;;28.49;11.67
37792;BME280;29527;55.766;37.570;2023-05-12T08:31:19;100311.88;;;27.90;12.77
37792;BME280;29527;55.766;37.570;2023-05-12T08:33:45;100309.75;;;27.42;13.32
37792;BME280;29527;55.766;37.570;2023-05-12T08:36:10;100284.06;;;26.97;13.75
37792;BME280;29527;55.766;37.570;2023-05-12T08:38:36;100300.22;;;26.73;13.77
37792;BME280;29527;55.766;37.570;2023-05-12T08:41:11;100284.72;;;26.54;13.78
37792;BME280;29527;55.766;37.570;2023-05-12T08:43:45;100303.94;;;26.54;14.17
37792;BME280;29527;55.766;37.570;2023-05-12T08:46:11;100293.72;;;26.22;14.37
37792;BME280;29527;55.766;37.570;2023-05-12T08:48:38;100304.47;;;26.10;14.83
37792;BME280;29527;55.766;37.570;2023-05-12T08:51:08;100296.25;;;25.97;14.56
37792;BME280;29527;55.766;37.570;2023-05-12T08:53:41;100294.94;;;26.13;15.00
37792;BME280;29527;55.766;37.570;2023-05-12T08:56:08;100296.22;;;26.30;14.70
37792;BME280;29527;55.766;37.570;2023-05-12T08:58:35;100285.38;;;26.49;14.46
37792;BME280;29527;55.766;37.570;2023-05-12T09:01:05;100291.81;;;26.68;14.10
37792;BME280;29527;55.766;37.570;2023-05-12T09:03:34;100265.50;;;26.54;14.75
37792;BME280;29527;55.766;37.570;2023-05-12T09:06:00;100289.50;;;26.65;14.75
37792;BME280;29527;55.766;37.570;2023-05-12T09:08:28;100271.69;;;26.74;14.82
37792;BME280;29527;55.766;37.570;2023-05-12T09:10:55;100275.59;;;26.99;14.70
37792;BME280;29527;55.766;37.570;2023-05-12T09:16:14;100277.56;;;26.91;13.56
37792;BME280;29527;55.766;37.570;2023-05-12T09:18:52;100280.53;;;26.90;13.74
37792;BME280;29527;55.766;37.570;2023-05-12T09:21:18;100274.16;;;26.50;14.54
37792;BME280;29527;55.766;37.570;2023-05-12T09:24:03;100273.75;;;26.54;14.76
37792;BME280;29527;55.766;37.570;2023-05-12T09:29:08;100244.47;;;26.34;14.66
37792;BME280;29527;55.766;37.570;2023-05-12T09:31:35;100263.16;;;26.50;14.89
37792;BME280;29527;55.766;37.570;2023-05-12T09:34:06;100266.69;;;26.64;14.65
37792;BME280;29527;55.766;37.570;2023-05-12T09:36:33;100282.16;;;26.59;15.41
37792;BME280;29527;55.766;37.570;2023-05-12T09:38:59;100269.53;;;26.44;15.29
37792;BME280;29527;55.766;37.570;2023-05-12T09:41:30;100243.69;;;26.13;14.93
37792;BME280;29527;55.766;37.570;2023-05-12T09:43:55;100261.59;;;26.16;15.41
37792;BME280;29527;55.766;37.570;2023-05-12T09:46:23;100267.97;;;26.16;15.19
37792;BME280;29527;55.766;37.570;2023-05-12T09:48:49;100262.47;;;26.16;15.69
37792;BME280;29527;55.766;37.570;2023-05-12T09:51:16;100259.53;;;26.11;15.69
37792;BME280;29527;55.766;37.570;2023-05-12T09:53:44;100264.13;;;26.31;15.13
37792;BME280;29527;55.766;37.570;2023-05-12T09:56:12;100267.19;;;26.55;15.68
37792;BME280;29527;55.766;37.570;2023-05-12T09:58:46;100273.13;;;26.84;15.02
37792;BME280;29527;55.766;37.570;2023-05-12T10:01:14;100251.84;;;26.72;14.29
37792;BME280;29527;55.766;37.570;2023-05-12T10:03:42;100266.94;;;26.56;14.80
37792;BME280;29527;55.766;37.570;2023-05-12T10:06:14;100229.56;;;26.55;14.55
37792;BME280;29527;55.766;37.570;2023-05-12T10:08:44;100250.75;;;26.87;14.42
37792;BME280;29527;55.766;37.570;2023-05-12T10:11:11;100228.53;;;26.88;14.03
37792;BME280;29527;55.766;37.570;2023-05-12T10:13:37;100241.44;;;26.88;14.50
37792;BME280;29527;55.766;37.570;2023-05-12T10:16:04;100245.88;;;26.89;14.65
37792;BME280;29527;55.766;37.570;2023-05-12T10:18:32;100252.16;;;26.96;14.66
37792;BME280;29527;55.766;37.570;2023-05-12T10:20:58;100254.97;;;26.89;14.26
37792;BME280;29527;55.766;37.570;2023-05-12T10:23:25;100253.53;;;26.73;15.12
37792;BME280;29527;55.766;37.570;2023-05-12T10:25:53;100250.34;;;26.37;15.10
37792;BME280;29527;55.766;37.570;2023-05-12T10:28:18;100254.47;;;26.08;15.83
37792;BME280;29527;55.766;37.570;2023-05-12T10:30:45;100250.75;;;25.82;15.47
37792;BME280;29527;55.766;37.570;2023-05-12T10:33:12;100252.44;;;25.70;15.78
37792;BME280;29527;55.766;37.570;2023-05-12T10:35:42;100254.13;;;25.64;16.13
37792;BME280;29527;55.766;37.570;2023-05-12T10:38:13;100232.00;;;25.52;15.79
37792;BME280;29527;55.766;37.570;2023-05-12T10:41:01;100248.44;;;25.65;16.53
37792;BME280;29527;55.766;37.570;2023-05-12T10:43:40;100241.47;;;25.43;16.37
37792;BME280;29527;55.766;37.570;2023-05-12T10:46:17;100254.34;;;25.22;16.27
37792;BME280;29527;55.766;37.570;2023-05-12T10:49:00;100250.75;;;25.01;16.76
37792;BME280;29527;55.766;37.570;2023-05-12T10:51:48;100254.53;;;24.87;16.71
37792;BME280;29527;55.766;37.570;2023-05-12T10:54:20;100258.75;;;25.03;16.57
37792;BME280;29527;55.766;37.570;2023-05-12T10:56:48;100243.00;;;24.36;17.48
37792;BME280;29527;55.766;37.570;2023-05-12T11:02:03;100255.22;;;24.47;17.13
37792;BME280;29527;55.766;37.570;2023-05-12T11:04:49;100254.44;;;24.60;17.22
37792;BME280;29527;55.766;37.570;2023-05-12T11:07:19;100246.44;;;24.65;17.01
37792;BME280;29527;55.766;37.570;2023-05-12T11:09:46;100252.34;;;24.62;17.05
37792;BME280;29527;55.766;37.570;2023-05-12T11:12:12;100246.88;;;24.62;17.22
37792;BME280;29527;55.766;37.570;2023-05-12T11:14:40;100245.63;;;24.71;17.01
37792;BME280;29527;55.766;37.570;2023-05-12T11:17:07;100251.16;;;24.85;17.40
37792;BME280;29527;55.766;37.570;2023-05-12T11:19:34;100248.00;;;24.94;16.75
37792;BME280;29527;55.766;37.570;2023-05-12T11:22:07;100252.25;;;25.11;16.16
37792;BME280;29527;55.766;37.570;2023-05-12T11:24:38;100234.31;;;24.88;15.79
37792;BME280;29527;55.766;37.570;2023-05-12T11:27:04;100247.75;;;24.83;15.62
37792;BME280;29527;55.766;37.570;2023-05-12T11:29:31;100230.00;;;24.58;16.42
37792;BME280;29527;55.766;37.570;2023-05-12T11:31:57;100236.06;;;24.47;16.46
37792;BME280;29527;55.766;37.570;2023-05-12T11:34:25;100241.31;;;24.42;16.25
37792;BME280;29527;55.766;37.570;2023-05-12T11:36:55;100231.66;;;24.52;16.36
37792;BME280;29527;55.766;37.570;2023-05-12T11:39:23;100233.41;;;24.67;16.24
37792;BME280;29527;55.766;37.570;2023-05-12T11:41:49;100221.81;;;24.65;16.94
37792;BME280;29527;55.766;37.570;2023-05-12T11:44:17;100221.38;;;24.68;16.40
37792;BME280;29527;55.766;37.570;2023-05-12T11:47:18;100222.72;;;24.92;16.63
37792;BME280;29527;55.766;37.570;2023-05-12T11:49:51;100229.25;;;24.78;16.84
37792;BME280;29527;55.766;37.570;2023-05-12T11:52:18;100219.72;;;24.67;16.54
37792;BME280;29527;55.766;37.570;2023-05-12T11:54:56;100219.75;;;24.80;16.56
37792;BME280;29527;55.766;37.570;2023-05-12T11:57:29;100219.56;;;24.89;16.78
37792;BME280;29527;55.766;37.570;2023-05-12T12:00:06;100217.25;;;24.86;16.59
37792;BME280;29527;55.766;37.570;2023-05-12T12:02:35;100209.38;;;24.69;16.61
37792;BME280;29527;55.766;37.570;2023-05-12T12:05:17;100207.34;;;24.85;16.58
37792;BME280;29527;55.766;37.570;2023-05-12T12:07:43;100208.16;;;24.85;16.45
37792;BME280;29527;55.766;37.570;2023-05-12T12:10:16;100212.19;;;24.96;16.72
37792;BME280;29527;55.766;37.570;2023-05-12T12:12:42;100209.41;;;24.83;16.30
37792;BME280;29527;55.766;37.570;2023-05-12T12:15:09;100201.38;;;24.68;16.60
37792;BME280;29527;55.766;37.570;2023-05-12T12:17:34;100194.41;;;24.58;16.57
37792;BME280;29527;55.766;37.570;2023-05-12T12:20:00;100195.88;;;24.54;16.79
37792;BME280;29527;55.766;37.570;2023-05-12T12:22:26;100201.72;;;24.37;17.20
37792;BME280;29527;55.766;37.570;2023-05-12T12:24:51;100174.31;;;24.17;17.32
37792;BME280;29527;55.766;37.570;2023-05-12T12:27:17;100193.28;;;24.26;17.25
37792;BME280;29527;55.766;37.570;2023-05-12T12:29:43;100197.09;;;24.31;17.25
37792;BME280;29527;55.766;37.570;2023-05-12T12:32:08;100191.63;;;24.38;17.29
37792;BME280;29527;55.766;37.570;2023-05-12T12:34:34;100187.22;;;24.50;17.16
37792;BME280;29527;55.766;37.570;2023-05-12T12:37:00;100187.03;;;24.65;16.42
37792;BME280;29527;55.766;37.570;2023-05-12T12:39:26;100185.81;;;24.82;15.95
37792;BME280;29527;55.766;37.570;2023-05-12T12:41:52;100178.63;;;24.60;16.62
37792;BME280;29527;55.766;37.570;2023-05-12T12:44:18;100176.94;;;24.59;16.62
37792;BME280;29527;55.766;37.570;2023-05-12T12:46:44;100185.56;;;24.70;17.09
37792;BME280;29527;55.766;37.570;2023-05-12T12:49:09;100176.16;;;24.86;16.44
37792;BME280;29527;55.766;37.570;2023-05-12T12:51:35;100182.28;;;24.88;16.44